sensor_id;sensor_type;location;lat;lon;timestamp;P1;durP1;ratioP1;P2;durP2;ratioP2
72132;SDS011;60008;50.826;6.896;2023-06-22T00:02:02;5.82;;;3.38;;
72132;SDS011;60008;50.826;6.896;2023-06-22T00:04:53;7.85;;;3.13;;
72132;SDS011;60008;50.826;6.896;2023-06-22T00:07:45;6.25;;;3.55;;
72132;SDS011;60008;50.826;6.896;2023-06-22T00:10:36;6.93;;;3.53;;
72132;SDS011;60008;50.826;6.896;2023-06-22T00:13:21;6.25;;;3.60;;
72132;SDS011;60008;50.826;6.896;2023-06-22T00:16:12;5.63;;;3.42;;
72132;SDS011;60008;50.826;6.896;2023-06-22T00:19:04;5.15;;;3.22;;
72132;SDS011;60008;50.826;6.896;2023-06-22T00:21:50;6.13;;;3.97;;
72132;SDS011;60008;50.826;6.896;2023-06-22T00:24:45;6.43;;;3.27;;
72132;SDS011;60008;50.826;6.896;2023-06-22T00:27:37;8.10;;;3.30;;
72132;SDS011;60008;50.826;6.896;2023-06-22T00:30:22;7.20;;;3.38;;
72132;SDS011;60008;50.826;6.896;2023-06-22T00:33:14;5.55;;;3.53;;
72132;SDS011;60008;50.826;6.896;2023-06-22T00:36:07;6.60;;;3.35;;
72132;SDS011;60008;50.826;6.896;2023-06-22T00:38:59;5.77;;;3.30;;
72132;SDS011;60008;50.826;6.896;2023-06-22T00:41:43;6.47;;;3.25;;
72132;SDS011;60008;50.826;6.896;2023-06-22T00:44:35;6.55;;;3.40;;
72132;SDS011;60008;50.826;6.896;2023-06-22T00:47:26;8.18;;;3.25;;
72132;SDS011;60008;50.826;6.896;2023-06-22T00:50:22;5.63;;;3.33;;
72132;SDS011;60008;50.826;6.896;2023-06-22T00:53:09;6.90;;;3.73;;
72132;SDS011;60008;50.826;6.896;2023-06-22T00:56:02;6.15;;;3.50;;
72132;SDS011;60008;50.826;6.896;2023-06-22T00:58:55;5.75;;;3.42;;
72132;SDS011;60008;50.826;6.896;2023-06-22T01:01:42;5.70;;;3.53;;
72132;SDS011;60008;50.826;6.896;2023-06-22T01:04:34;5.30;;;3.75;;
72132;SDS011;60008;50.826;6.896;2023-06-22T01:07:39;6.43;;;3.27;;
72132;SDS011;60008;50.826;6.896;2023-06-22T01:10:53;9.85;;;3.65;;
72132;SDS011;60008;50.826;6.896;2023-06-22T01:17:01;7.60;;;3.60;;
72132;SDS011;60008;50.826;6.896;2023-06-22T01:19:48;8.70;;;3.55;;
72132;SDS011;60008;50.826;6.896;2023-06-22T01:25:47;6.93;;;3.83;;
72132;SDS011;60008;50.826;6.896;2023-06-22T01:28:50;5.70;;;3.65;;
72132;SDS011;60008;50.826;6.896;2023-06-22T01:31:44;5.53;;;3.38;;
72132;SDS011;60008;50.826;6.896;2023-06-22T01:34:30;5.05;;;3.30;;
72132;SDS011;60008;50.826;6.896;2023-06-22T01:37:23;5.50;;;3.30;;
72132;SDS011;60008;50.826;6.896;2023-06-22T01:40:08;5.25;;;3.40;;
72132;SDS011;60008;50.826;6.896;2023-06-22T01:43:01;7.18;;;3.83;;
72132;SDS011;60008;50.826;6.896;2023-06-22T01:45:47;7.05;;;3.60;;
72132;SDS011;60008;50.826;6.896;2023-06-22T01:48:39;7.13;;;4.00;;
72132;SDS011;60008;50.826;6.896;2023-06-22T01:51:24;5.73;;;3.57;;
72132;SDS011;60008;50.826;6.896;2023-06-22T01:54:16;5.72;;;3.55;;
72132;SDS011;60008;50.826;6.896;2023-06-22T01:57:01;5.80;;;3.70;;
72132;SDS011;60008;50.826;6.896;2023-06-22T01:59:57;7.07;;;3.97;;
72132;SDS011;60008;50.826;6.896;2023-06-22T02:05:38;9.67;;;3.80;;
72132;SDS011;60008;50.826;6.896;2023-06-22T02:08:40;7.85;;;4.00;;
72132;SDS011;60008;50.826;6.896;2023-06-22T02:11:36;5.97;;;4.07;;
72132;SDS011;60008;50.826;6.896;2023-06-22T02:14:22;6.45;;;4.00;;
72132;SDS011;60008;50.826;6.896;2023-06-22T02:17:16;7.00;;;3.88;;
72132;SDS011;60008;50.826;6.896;2023-06-22T02:20:03;5.47;;;3.87;;
72132;SDS011;60008;50.826;6.896;2023-06-22T02:23:00;7.53;;;3.78;;
72132;SDS011;60008;50.826;6.896;2023-06-22T02:25:51;7.97;;;3.90;;
72132;SDS011;60008;50.826;6.896;2023-06-22T02:28:42;5.65;;;3.67;;
72132;SDS011;60008;50.826;6.896;2023-06-22T02:31:34;6.05;;;3.70;;
72132;SDS011;60008;50.826;6.896;2023-06-22T02:34:25;5.93;;;3.60;;
72132;SDS011;60008;50.826;6.896;2023-06-22T02:37:10;6.95;;;3.80;;
72132;SDS011;60008;50.826;6.896;2023-06-22T02:40:05;8.18;;;3.67;;
72132;SDS011;60008;50.826;6.896;2023-06-22T02:42:58;6.50;;;3.90;;
72132;SDS011;60008;50.826;6.896;2023-06-22T02:45:46;5.63;;;3.92;;
72132;SDS011;60008;50.826;6.896;2023-06-22T02:48:38;7.20;;;3.73;;
72132;SDS011;60008;50.826;6.896;2023-06-22T02:51:24;6.43;;;3.90;;
72132;SDS011;60008;50.826;6.896;2023-06-22T02:54:16;10.10;;;3.97;;
72132;SDS011;60008;50.826;6.896;2023-06-22T02:57:01;6.75;;;3.88;;
72132;SDS011;60008;50.826;6.896;2023-06-22T02:59:56;6.93;;;3.50;;
72132;SDS011;60008;50.826;6.896;2023-06-22T03:02:41;6.90;;;3.80;;
72132;SDS011;60008;50.826;6.896;2023-06-22T03:05:38;6.32;;;3.80;;
72132;SDS011;60008;50.826;6.896;2023-06-22T03:08:30;8.10;;;3.85;;
72132;SDS011;60008;50.826;6.896;2023-06-22T03:11:20;6.32;;;3.80;;
72132;SDS011;60008;50.826;6.896;2023-06-22T03:14:06;7.07;;;3.90;;
72132;SDS011;60008;50.826;6.896;2023-06-22T03:16:57;6.43;;;3.80;;
72132;SDS011;60008;50.826;6.896;2023-06-22T03:19:47;6.47;;;4.00;;
72132;SDS011;60008;50.826;6.896;2023-06-22T03:22:39;5.82;;;3.83;;
72132;SDS011;60008;50.826;6.896;2023-06-22T03:25:32;5.90;;;3.95;;
72132;SDS011;60008;50.826;6.896;2023-06-22T03:28:18;5.50;;;3.65;;
72132;SDS011;60008;50.826;6.896;2023-06-22T03:31:10;7.17;;;4.00;;
72132;SDS011;60008;50.826;6.896;2023-06-22T03:33:55;5.55;;;3.70;;
72132;SDS011;60008;50.826;6.896;2023-06-22T03:36:47;6.40;;;4.15;;
72132;SDS011;60008;50.826;6.896;2023-06-22T03:39:32;5.70;;;3.88;;
72132;SDS011;60008;50.826;6.896;2023-06-22T03:42:23;5.43;;;3.60;;
72132;SDS011;60008;50.826;6.896;2023-06-22T03:45:15;10.57;;;3.90;;
72132;SDS011;60008;50.826;6.896;2023-06-22T03:48:00;7.10;;;3.97;;
72132;SDS011;60008;50.826;6.896;2023-06-22T03:50:52;7.57;;;3.88;;
72132;SDS011;60008;50.826;6.896;2023-06-22T03:53:37;9.07;;;4.38;;
72132;SDS011;60008;50.826;6.896;2023-06-22T03:56:29;6.82;;;4.35;;
72132;SDS011;60008;50.826;6.896;2023-06-22T03:59:21;7.33;;;4.03;;
72132;SDS011;60008;50.826;6.896;2023-06-22T04:02:12;6.78;;;4.13;;
72132;SDS011;60008;50.826;6.896;2023-06-22T04:04:57;10.57;;;4.20;;
72132;SDS011;60008;50.826;6.896;2023-06-22T04:07:55;7.60;;;4.45;;
72132;SDS011;60008;50.826;6.896;2023-06-22T04:10:47;8.48;;;4.47;;
72132;SDS011;60008;50.826;6.896;2023-06-22T04:13:32;6.77;;;4.43;;
72132;SDS011;60008;50.826;6.896;2023-06-22T04:16:23;7.68;;;4.35;;
72132;SDS011;60008;50.826;6.896;2023-06-22T04:19:08;8.77;;;5.30;;
72132;SDS011;60008;50.826;6.896;2023-06-22T04:22:05;6.13;;;4.40;;
72132;SDS011;60008;50.826;6.896;2023-06-22T04:24:51;9.90;;;4.78;;
72132;SDS011;60008;50.826;6.896;2023-06-22T04:27:44;7.10;;;4.37;;
72132;SDS011;60008;50.826;6.896;2023-06-22T04:30:29;8.10;;;4.50;;
72132;SDS011;60008;50.826;6.896;2023-06-22T04:33:23;7.40;;;4.93;;
72132;SDS011;60008;50.826;6.896;2023-06-22T04:36:14;8.55;;;5.00;;
72132;SDS011;60008;50.826;6.896;2023-06-22T04:39:09;7.97;;;4.78;;
72132;SDS011;60008;50.826;6.896;2023-06-22T04:41:55;8.30;;;4.80;;
72132;SDS011;60008;50.826;6.896;2023-06-22T04:44:51;9.68;;;5.28;;
72132;SDS011;60008;50.826;6.896;2023-06-22T04:47:36;10.88;;;5.40;;
72132;SDS011;60008;50.826;6.896;2023-06-22T04:50:30;8.48;;;5.07;;
72132;SDS011;60008;50.826;6.896;2023-06-22T04:53:15;7.53;;;5.20;;
72132;SDS011;60008;50.826;6.896;2023-06-22T04:56:07;7.67;;;5.00;;
72132;SDS011;60008;50.826;6.896;2023-06-22T04:58:53;8.82;;;4.95;;
72132;SDS011;60008;50.826;6.896;2023-06-22T05:01:47;7.57;;;4.85;;
72132;SDS011;60008;50.826;6.896;2023-06-22T05:04:32;7.15;;;4.68;;
72132;SDS011;60008;50.826;6.896;2023-06-22T05:07:25;7.15;;;4.93;;
72132;SDS011;60008;50.826;6.896;2023-06-22T05:10:16;6.43;;;4.50;;
72132;SDS011;60008;50.826;6.896;2023-06-22T05:13:08;9.35;;;4.90;;
72132;SDS011;60008;50.826;6.896;2023-06-22T05:15:53;9.25;;;4.63;;
72132;SDS011;60008;50.826;6.896;2023-06-22T05:18:53;7.30;;;4.88;;
72132;SDS011;60008;50.826;6.896;2023-06-22T05:21:39;7.10;;;4.95;;
72132;SDS011;60008;50.826;6.896;2023-06-22T05:24:31;7.07;;;5.10;;
72132;SDS011;60008;50.826;6.896;2023-06-22T05:27:16;11.80;;;5.45;;
72132;SDS011;60008;50.826;6.896;2023-06-22T05:30:07;8.05;;;5.45;;
72132;SDS011;60008;50.826;6.896;2023-06-22T05:32:53;8.27;;;5.32;;
72132;SDS011;60008;50.826;6.896;2023-06-22T05:35:45;9.55;;;5.55;;
72132;SDS011;60008;50.826;6.896;2023-06-22T05:38:29;8.93;;;5.23;;
72132;SDS011;60008;50.826;6.896;2023-06-22T05:41:21;8.43;;;5.93;;
72132;SDS011;60008;50.826;6.896;2023-06-22T05:44:06;10.05;;;5.78;;
72132;SDS011;60008;50.826;6.896;2023-06-22T05:46:58;8.82;;;6.03;;
72132;SDS011;60008;50.826;6.896;2023-06-22T05:49:42;9.25;;;5.97;;
72132;SDS011;60008;50.826;6.896;2023-06-22T05:52:34;10.60;;;6.77;;
72132;SDS011;60008;50.826;6.896;2023-06-22T05:55:19;9.50;;;6.18;;
72132;SDS011;60008;50.826;6.896;2023-06-22T05:58:11;11.65;;;6.95;;
72132;SDS011;60008;50.826;6.896;2023-06-22T06:01:02;9.13;;;6.30;;
72132;SDS011;60008;50.826;6.896;2023-06-22T06:03:47;11.23;;;6.75;;
72132;SDS011;60008;50.826;6.896;2023-06-22T06:06:46;14.30;;;6.67;;
72132;SDS011;60008;50.826;6.896;2023-06-22T06:09:38;11.52;;;6.68;;
72132;SDS011;60008;50.826;6.896;2023-06-22T06:12:30;8.60;;;6.43;;
72132;SDS011;60008;50.826;6.896;2023-06-22T06:15:22;10.35;;;6.95;;
72132;SDS011;60008;50.826;6.896;2023-06-22T06:18:07;10.73;;;7.13;;
72132;SDS011;60008;50.826;6.896;2023-06-22T06:20:59;11.10;;;6.83;;
72132;SDS011;60008;50.826;6.896;2023-06-22T06:23:44;10.70;;;6.57;;
72132;SDS011;60008;50.826;6.896;2023-06-22T06:26:35;10.13;;;6.50;;
72132;SDS011;60008;50.826;6.896;2023-06-22T06:29:27;10.50;;;6.50;;
72132;SDS011;60008;50.826;6.896;2023-06-22T06:32:12;11.30;;;6.43;;
72132;SDS011;60008;50.826;6.896;2023-06-22T06:35:05;14.97;;;6.33;;
72132;SDS011;60008;50.826;6.896;2023-06-22T06:37:57;13.38;;;6.57;;
72132;SDS011;60008;50.826;6.896;2023-06-22T06:40:41;9.43;;;6.38;;
72132;SDS011;60008;50.826;6.896;2023-06-22T06:43:33;9.88;;;6.43;;
72132;SDS011;60008;50.826;6.896;2023-06-22T06:46:18;11.40;;;7.13;;
72132;SDS011;60008;50.826;6.896;2023-06-22T06:49:10;10.33;;;7.07;;
72132;SDS011;60008;50.826;6.896;2023-06-22T06:52:02;14.43;;;7.20;;
72132;SDS011;60008;50.826;6.896;2023-06-22T06:54:47;11.77;;;6.07;;
72132;SDS011;60008;50.826;6.896;2023-06-22T06:57:39;7.97;;;6.00;;
72132;SDS011;60008;50.826;6.896;2023-06-22T07:00:31;9.90;;;5.53;;
72132;SDS011;60008;50.826;6.896;2023-06-22T07:03:16;12.13;;;5.77;;
72132;SDS011;60008;50.826;6.896;2023-06-22T07:06:08;12.00;;;6.20;;
72132;SDS011;60008;50.826;6.896;2023-06-22T07:09:01;11.45;;;6.38;;
72132;SDS011;60008;50.826;6.896;2023-06-22T07:11:53;9.98;;;6.13;;
72132;SDS011;60008;50.826;6.896;2023-06-22T07:14:38;9.90;;;6.15;;
72132;SDS011;60008;50.826;6.896;2023-06-22T07:17:30;11.10;;;6.83;;
72132;SDS011;60008;50.826;6.896;2023-06-22T07:20:15;11.20;;;6.82;;
72132;SDS011;60008;50.826;6.896;2023-06-22T07:23:07;11.77;;;6.68;;
72132;SDS011;60008;50.826;6.896;2023-06-22T07:25:52;9.63;;;6.80;;
72132;SDS011;60008;50.826;6.896;2023-06-22T07:28:43;12.52;;;7.57;;
72132;SDS011;60008;50.826;6.896;2023-06-22T07:31:35;12.33;;;7.13;;
72132;SDS011;60008;50.826;6.896;2023-06-22T07:34:26;11.10;;;7.43;;
72132;SDS011;60008;50.826;6.896;2023-06-22T07:37:11;15.43;;;8.57;;
72132;SDS011;60008;50.826;6.896;2023-06-22T07:40:03;11.75;;;8.00;;
72132;SDS011;60008;50.826;6.896;2023-06-22T07:42:51;12.60;;;8.40;;
72132;SDS011;60008;50.826;6.896;2023-06-22T07:45:50;12.67;;;7.83;;
72132;SDS011;60008;50.826;6.896;2023-06-22T07:48:45;14.23;;;7.67;;
72132;SDS011;60008;50.826;6.896;2023-06-22T07:51:40;9.57;;;6.72;;
72132;SDS011;60008;50.826;6.896;2023-06-22T07:54:25;18.10;;;7.13;;
72132;SDS011;60008;50.826;6.896;2023-06-22T07:57:16;10.63;;;6.75;;
72132;SDS011;60008;50.826;6.896;2023-06-22T08:00:02;11.07;;;6.45;;
72132;SDS011;60008;50.826;6.896;2023-06-22T08:02:59;11.47;;;6.23;;
72132;SDS011;60008;50.826;6.896;2023-06-22T08:05:50;8.00;;;6.10;;
72132;SDS011;60008;50.826;6.896;2023-06-22T08:08:42;7.70;;;5.30;;
72132;SDS011;60008;50.826;6.896;2023-06-22T08:11:27;8.57;;;5.45;;
72132;SDS011;60008;50.826;6.896;2023-06-22T08:14:19;8.52;;;5.70;;
72132;SDS011;60008;50.826;6.896;2023-06-22T08:17:04;9.07;;;5.50;;
72132;SDS011;60008;50.826;6.896;2023-06-22T08:19:56;9.50;;;6.40;;
72132;SDS011;60008;50.826;6.896;2023-06-22T08:22:41;10.93;;;8.40;;
72132;SDS011;60008;50.826;6.896;2023-06-22T08:25:34;9.45;;;6.20;;
72132;SDS011;60008;50.826;6.896;2023-06-22T08:28:19;6.60;;;5.43;;
72132;SDS011;60008;50.826;6.896;2023-06-22T08:31:11;8.05;;;5.70;;
72132;SDS011;60008;50.826;6.896;2023-06-22T08:33:57;9.70;;;6.60;;
72132;SDS011;60008;50.826;6.896;2023-06-22T08:36:48;9.93;;;6.37;;
72132;SDS011;60008;50.826;6.896;2023-06-22T08:39:37;8.15;;;5.38;;
72132;SDS011;60008;50.826;6.896;2023-06-22T08:42:28;8.43;;;6.38;;
72132;SDS011;60008;50.826;6.896;2023-06-22T08:45:13;12.18;;;5.72;;
72132;SDS011;60008;50.826;6.896;2023-06-22T08:48:05;7.75;;;6.10;;
72132;SDS011;60008;50.826;6.896;2023-06-22T08:50:50;10.73;;;5.73;;
72132;SDS011;60008;50.826;6.896;2023-06-22T08:53:41;11.00;;;5.90;;
72132;SDS011;60008;50.826;6.896;2023-06-22T08:56:26;10.93;;;6.28;;
72132;SDS011;60008;50.826;6.896;2023-06-22T08:59:17;8.80;;;6.90;;
72132;SDS011;60008;50.826;6.896;2023-06-22T09:02:02;13.27;;;6.40;;
72132;SDS011;60008;50.826;6.896;2023-06-22T09:04:54;8.27;;;6.13;;
72132;SDS011;60008;50.826;6.896;2023-06-22T09:07:59;9.03;;;5.83;;
72132;SDS011;60008;50.826;6.896;2023-06-22T09:10:44;10.77;;;6.47;;
72132;SDS011;60008;50.826;6.896;2023-06-22T09:13:35;10.02;;;6.22;;
72132;SDS011;60008;50.826;6.896;2023-06-22T09:16:20;10.55;;;6.95;;
72132;SDS011;60008;50.826;6.896;2023-06-22T09:19:11;9.77;;;6.60;;
72132;SDS011;60008;50.826;6.896;2023-06-22T09:21:56;7.95;;;6.05;;
72132;SDS011;60008;50.826;6.896;2023-06-22T09:24:47;8.20;;;6.07;;
72132;SDS011;60008;50.826;6.896;2023-06-22T09:27:31;11.30;;;6.63;;
72132;SDS011;60008;50.826;6.896;2023-06-22T09:30:23;9.13;;;5.97;;
72132;SDS011;60008;50.826;6.896;2023-06-22T09:33:15;9.00;;;6.05;;
72132;SDS011;60008;50.826;6.896;2023-06-22T09:36:07;10.55;;;6.40;;
72132;SDS011;60008;50.826;6.896;2023-06-22T09:38:59;8.23;;;6.30;;
72132;SDS011;60008;50.826;6.896;2023-06-22T09:41:50;9.83;;;5.90;;
72132;SDS011;60008;50.826;6.896;2023-06-22T09:44:42;8.00;;;5.80;;
72132;SDS011;60008;50.826;6.896;2023-06-22T09:47:34;10.15;;;6.00;;
72132;SDS011;60008;50.826;6.896;2023-06-22T09:50:19;8.88;;;6.20;;
72132;SDS011;60008;50.826;6.896;2023-06-22T09:53:11;7.47;;;5.60;;
72132;SDS011;60008;50.826;6.896;2023-06-22T09:55:56;9.32;;;5.78;;
72132;SDS011;60008;50.826;6.896;2023-06-22T09:58:48;12.50;;;5.53;;
72132;SDS011;60008;50.826;6.896;2023-06-22T10:01:37;7.97;;;5.80;;
72132;SDS011;60008;50.826;6.896;2023-06-22T10:04:28;13.38;;;6.40;;
72132;SDS011;60008;50.826;6.896;2023-06-22T10:07:19;9.23;;;5.85;;
72132;SDS011;60008;50.826;6.896;2023-06-22T10:10:11;7.93;;;5.68;;
72132;SDS011;60008;50.826;6.896;2023-06-22T10:13:07;8.77;;;6.35;;
72132;SDS011;60008;50.826;6.896;2023-06-22T10:15:55;11.00;;;6.37;;
72132;SDS011;60008;50.826;6.896;2023-06-22T10:18:47;10.13;;;6.20;;
72132;SDS011;60008;50.826;6.896;2023-06-22T10:21:39;21.60;;;7.72;;
72132;SDS011;60008;50.826;6.896;2023-06-22T10:24:31;14.65;;;7.32;;
72132;SDS011;60008;50.826;6.896;2023-06-22T10:27:16;11.80;;;7.10;;
72132;SDS011;60008;50.826;6.896;2023-06-22T10:30:08;11.10;;;7.37;;
72132;SDS011;60008;50.826;6.896;2023-06-22T10:33:01;12.35;;;8.13;;
72132;SDS011;60008;50.826;6.896;2023-06-22T10:35:46;12.38;;;8.02;;
72132;SDS011;60008;50.826;6.896;2023-06-22T10:38:37;10.43;;;7.35;;
72132;SDS011;60008;50.826;6.896;2023-06-22T10:41:28;10.55;;;7.45;;
72132;SDS011;60008;50.826;6.896;2023-06-22T10:44:14;15.10;;;7.70;;
72132;SDS011;60008;50.826;6.896;2023-06-22T10:47:06;14.32;;;7.85;;
72132;SDS011;60008;50.826;6.896;2023-06-22T10:49:52;13.95;;;7.95;;
72132;SDS011;60008;50.826;6.896;2023-06-22T10:52:43;18.05;;;9.75;;
72132;SDS011;60008;50.826;6.896;2023-06-22T10:55:37;15.52;;;9.00;;
72132;SDS011;60008;50.826;6.896;2023-06-22T10:58:40;15.87;;;9.07;;
72132;SDS011;60008;50.826;6.896;2023-06-22T11:01:32;16.55;;;9.27;;
72132;SDS011;60008;50.826;6.896;2023-06-22T11:04:24;14.35;;;9.63;;
72132;SDS011;60008;50.826;6.896;2023-06-22T11:07:23;16.60;;;10.43;;
72132;SDS011;60008;50.826;6.896;2023-06-22T11:10:08;21.10;;;10.43;;
72132;SDS011;60008;50.826;6.896;2023-06-22T11:13:00;18.50;;;11.17;;
72132;SDS011;60008;50.826;6.896;2023-06-22T11:15:47;19.70;;;11.50;;
72132;SDS011;60008;50.826;6.896;2023-06-22T11:18:39;15.45;;;10.68;;
72132;SDS011;60008;50.826;6.896;2023-06-22T11:21:30;16.40;;;10.80;;
72132;SDS011;60008;50.826;6.896;2023-06-22T11:24:22;16.88;;;11.27;;
72132;SDS011;60008;50.826;6.896;2023-06-22T11:27:07;16.20;;;11.20;;
72132;SDS011;60008;50.826;6.896;2023-06-22T11:29:59;21.30;;;11.73;;
72132;SDS011;60008;50.826;6.896;2023-06-22T11:32:44;17.98;;;11.05;;
72132;SDS011;60008;50.826;6.896;2023-06-22T11:35:35;19.63;;;11.30;;
72132;SDS011;60008;50.826;6.896;2023-06-22T11:38:20;18.80;;;10.63;;
72132;SDS011;60008;50.826;6.896;2023-06-22T11:41:12;16.10;;;10.83;;
72132;SDS011;60008;50.826;6.896;2023-06-22T11:43:57;22.67;;;12.35;;
72132;SDS011;60008;50.826;6.896;2023-06-22T11:46:48;19.90;;;12.45;;
72132;SDS011;60008;50.826;6.896;2023-06-22T11:49:41;13.48;;;9.60;;
72132;SDS011;60008;50.826;6.896;2023-06-22T11:52:26;18.98;;;10.45;;
72132;SDS011;60008;50.826;6.896;2023-06-22T11:55:18;16.63;;;9.77;;
72132;SDS011;60008;50.826;6.896;2023-06-22T11:58:10;18.27;;;9.18;;
72132;SDS011;60008;50.826;6.896;2023-06-22T12:00:56;15.50;;;9.73;;
72132;SDS011;60008;50.826;6.896;2023-06-22T12:03:48;15.63;;;10.40;;
72132;SDS011;60008;50.826;6.896;2023-06-22T12:06:35;14.25;;;9.52;;
72132;SDS011;60008;50.826;6.896;2023-06-22T12:09:35;13.03;;;8.83;;
72132;SDS011;60008;50.826;6.896;2023-06-22T12:12:20;11.27;;;8.10;;
72132;SDS011;60008;50.826;6.896;2023-06-22T12:15:12;12.55;;;8.18;;
72132;SDS011;60008;50.826;6.896;2023-06-22T12:18:11;12.20;;;8.95;;
72132;SDS011;60008;50.826;6.896;2023-06-22T12:21:05;13.73;;;8.38;;
72132;SDS011;60008;50.826;6.896;2023-06-22T12:24:03;14.38;;;8.38;;
72132;SDS011;60008;50.826;6.896;2023-06-22T12:26:55;14.57;;;8.60;;
72132;SDS011;60008;50.826;6.896;2023-06-22T12:29:40;14.10;;;9.93;;
72132;SDS011;60008;50.826;6.896;2023-06-22T12:32:32;12.50;;;8.23;;
72132;SDS011;60008;50.826;6.896;2023-06-22T12:35:23;13.98;;;8.15;;
72132;SDS011;60008;50.826;6.896;2023-06-22T12:38:15;12.38;;;6.97;;
72132;SDS011;60008;50.826;6.896;2023-06-22T12:41:00;11.47;;;7.57;;
72132;SDS011;60008;50.826;6.896;2023-06-22T12:43:52;11.30;;;7.05;;
72132;SDS011;60008;50.826;6.896;2023-06-22T12:46:37;13.93;;;7.72;;
72132;SDS011;60008;50.826;6.896;2023-06-22T12:49:29;13.32;;;7.93;;
72132;SDS011;60008;50.826;6.896;2023-06-22T12:52:20;13.45;;;7.93;;
72132;SDS011;60008;50.826;6.896;2023-06-22T12:55:11;11.67;;;7.50;;
72132;SDS011;60008;50.826;6.896;2023-06-22T12:57:56;13.27;;;7.95;;
72132;SDS011;60008;50.826;6.896;2023-06-22T13:00:48;13.43;;;8.90;;
72132;SDS011;60008;50.826;6.896;2023-06-22T13:03:33;12.93;;;8.68;;
72132;SDS011;60008;50.826;6.896;2023-06-22T13:06:30;12.98;;;9.13;;
72132;SDS011;60008;50.826;6.896;2023-06-22T13:09:29;13.73;;;8.63;;
72132;SDS011;60008;50.826;6.896;2023-06-22T13:12:21;14.90;;;9.50;;
72132;SDS011;60008;50.826;6.896;2023-06-22T13:15:07;14.50;;;9.75;;
72132;SDS011;60008;50.826;6.896;2023-06-22T13:17:58;12.15;;;8.63;;
72132;SDS011;60008;50.826;6.896;2023-06-22T13:20:44;13.48;;;9.27;;
72132;SDS011;60008;50.826;6.896;2023-06-22T13:23:36;13.50;;;7.97;;
72132;SDS011;60008;50.826;6.896;2023-06-22T13:26:21;11.17;;;8.13;;
72132;SDS011;60008;50.826;6.896;2023-06-22T13:29:13;11.63;;;8.38;;
72132;SDS011;60008;50.826;6.896;2023-06-22T13:31:58;16.27;;;10.07;;
72132;SDS011;60008;50.826;6.896;2023-06-22T13:34:52;12.02;;;7.88;;
72132;SDS011;60008;50.826;6.896;2023-06-22T13:37:37;11.60;;;7.85;;
72132;SDS011;60008;50.826;6.896;2023-06-22T13:40:28;11.63;;;7.63;;
72132;SDS011;60008;50.826;6.896;2023-06-22T13:43:13;13.38;;;7.68;;
72132;SDS011;60008;50.826;6.896;2023-06-22T13:46:04;13.05;;;7.97;;
72132;SDS011;60008;50.826;6.896;2023-06-22T13:48:56;16.92;;;7.85;;
72132;SDS011;60008;50.826;6.896;2023-06-22T13:51:48;10.63;;;7.20;;
72132;SDS011;60008;50.826;6.896;2023-06-22T13:54:40;12.70;;;7.47;;
72132;SDS011;60008;50.826;6.896;2023-06-22T13:57:25;8.38;;;6.45;;
72132;SDS011;60008;50.826;6.896;2023-06-22T14:00:17;13.65;;;6.90;;
72132;SDS011;60008;50.826;6.896;2023-06-22T14:03:02;12.43;;;6.65;;
72132;SDS011;60008;50.826;6.896;2023-06-22T14:06:00;9.30;;;6.13;;
72132;SDS011;60008;50.826;6.896;2023-06-22T14:09:01;11.47;;;6.33;;
72132;SDS011;60008;50.826;6.896;2023-06-22T14:11:53;9.70;;;5.80;;
72132;SDS011;60008;50.826;6.896;2023-06-22T14:14:39;8.60;;;6.72;;
72132;SDS011;60008;50.826;6.896;2023-06-22T14:17:30;9.82;;;6.10;;
72132;SDS011;60008;50.826;6.896;2023-06-22T14:20:22;10.85;;;5.70;;
72132;SDS011;60008;50.826;6.896;2023-06-22T14:23:07;9.90;;;5.93;;
72132;SDS011;60008;50.826;6.896;2023-06-22T14:25:58;10.00;;;5.53;;
72132;SDS011;60008;50.826;6.896;2023-06-22T14:28:50;10.32;;;5.80;;
72132;SDS011;60008;50.826;6.896;2023-06-22T14:31:35;15.10;;;6.30;;
72132;SDS011;60008;50.826;6.896;2023-06-22T14:34:26;10.52;;;5.40;;
72132;SDS011;60008;50.826;6.896;2023-06-22T14:37:11;11.25;;;5.60;;
72132;SDS011;60008;50.826;6.896;2023-06-22T14:40:04;9.77;;;5.30;;
72132;SDS011;60008;50.826;6.896;2023-06-22T14:42:49;9.05;;;6.10;;
72132;SDS011;60008;50.826;6.896;2023-06-22T14:45:41;8.77;;;5.40;;
72132;SDS011;60008;50.826;6.896;2023-06-22T14:48:26;6.65;;;4.72;;
72132;SDS011;60008;50.826;6.896;2023-06-22T14:51:18;7.82;;;4.75;;
72132;SDS011;60008;50.826;6.896;2023-06-22T14:54:03;7.83;;;4.53;;
72132;SDS011;60008;50.826;6.896;2023-06-22T14:56:55;7.32;;;4.80;;
72132;SDS011;60008;50.826;6.896;2023-06-22T14:59:47;7.68;;;4.70;;
72132;SDS011;60008;50.826;6.896;2023-06-22T15:02:33;9.25;;;4.65;;
72132;SDS011;60008;50.826;6.896;2023-06-22T15:05:31;16.67;;;5.78;;
72132;SDS011;60008;50.826;6.896;2023-06-22T15:08:30;8.97;;;4.73;;
72132;SDS011;60008;50.826;6.896;2023-06-22T15:11:21;20.15;;;6.72;;
72132;SDS011;60008;50.826;6.896;2023-06-22T15:14:06;11.30;;;6.43;;
72132;SDS011;60008;50.826;6.896;2023-06-22T15:16:58;12.07;;;6.55;;
72132;SDS011;60008;50.826;6.896;2023-06-22T15:19:43;10.65;;;6.32;;
72132;SDS011;60008;50.826;6.896;2023-06-22T15:22:34;10.20;;;6.53;;
72132;SDS011;60008;50.826;6.896;2023-06-22T15:25:19;11.68;;;6.90;;
72132;SDS011;60008;50.826;6.896;2023-06-22T15:28:10;11.75;;;6.90;;
72132;SDS011;60008;50.826;6.896;2023-06-22T15:31:02;11.82;;;6.90;;
72132;SDS011;60008;50.826;6.896;2023-06-22T15:33:53;11.20;;;6.55;;
72132;SDS011;60008;50.826;6.896;2023-06-22T15:36:38;13.07;;;7.40;;
72132;SDS011;60008;50.826;6.896;2023-06-22T15:39:30;12.82;;;7.53;;
72132;SDS011;60008;50.826;6.896;2023-06-22T15:42:22;11.30;;;6.68;;
72132;SDS011;60008;50.826;6.896;2023-06-22T15:45:14;9.57;;;6.07;;
72132;SDS011;60008;50.826;6.896;2023-06-22T15:47:59;11.98;;;7.20;;
72132;SDS011;60008;50.826;6.896;2023-06-22T15:50:50;13.20;;;6.73;;
72132;SDS011;60008;50.826;6.896;2023-06-22T15:53:35;11.35;;;6.75;;
72132;SDS011;60008;50.826;6.896;2023-06-22T15:56:26;10.02;;;6.50;;
72132;SDS011;60008;50.826;6.896;2023-06-22T15:59:11;12.32;;;6.75;;
72132;SDS011;60008;50.826;6.896;2023-06-22T16:02:02;11.57;;;7.55;;
72132;SDS011;60008;50.826;6.896;2023-06-22T16:04:47;12.67;;;7.30;;
72132;SDS011;60008;50.826;6.896;2023-06-22T16:07:44;8.60;;;5.72;;
72132;SDS011;60008;50.826;6.896;2023-06-22T16:10:29;8.57;;;5.28;;
72132;SDS011;60008;50.826;6.896;2023-06-22T16:13:21;8.48;;;4.80;;
72132;SDS011;60008;50.826;6.896;2023-06-22T16:16:12;9.85;;;5.68;;
72132;SDS011;60008;50.826;6.896;2023-06-22T16:19:03;9.50;;;5.30;;
72132;SDS011;60008;50.826;6.896;2023-06-22T16:21:55;9.98;;;5.88;;
72132;SDS011;60008;50.826;6.896;2023-06-22T16:24:48;12.73;;;6.03;;
72132;SDS011;60008;50.826;6.896;2023-06-22T16:27:36;9.20;;;5.35;;
72132;SDS011;60008;50.826;6.896;2023-06-22T16:30:28;11.00;;;6.65;;
72132;SDS011;60008;50.826;6.896;2023-06-22T16:33:19;8.67;;;5.87;;
72132;SDS011;60008;50.826;6.896;2023-06-22T16:36:04;10.10;;;5.72;;
72132;SDS011;60008;50.826;6.896;2023-06-22T16:38:55;12.25;;;5.13;;
72132;SDS011;60008;50.826;6.896;2023-06-22T16:41:46;8.80;;;4.85;;
72132;SDS011;60008;50.826;6.896;2023-06-22T16:44:37;11.05;;;5.40;;
72132;SDS011;60008;50.826;6.896;2023-06-22T16:47:22;9.83;;;3.90;;
72132;SDS011;60008;50.826;6.896;2023-06-22T16:50:14;5.53;;;3.08;;
72132;SDS011;60008;50.826;6.896;2023-06-22T16:53:00;6.50;;;3.63;;
72132;SDS011;60008;50.826;6.896;2023-06-22T16:55:51;5.80;;;3.63;;
72132;SDS011;60008;50.826;6.896;2023-06-22T16:58:37;6.38;;;3.30;;
72132;SDS011;60008;50.826;6.896;2023-06-22T17:01:47;5.80;;;3.27;;
72132;SDS011;60008;50.826;6.896;2023-06-22T17:04:36;5.60;;;2.80;;
72132;SDS011;60008;50.826;6.896;2023-06-22T17:07:28;6.20;;;2.72;;